Time;durP1;ratioP1;P1;durP2;ratioP2;P2;SDS_P1;SDS_P2;PMS_P1;PMS_P2;Temp;Humidity;BMP_temperature;BMP_pressure;BME280_temperature;BME280_humidity;BME280_pressure;Samples;Min_cycle;Max_cycle;Signal;HPM_P1;HPM_P2
2022/05/27 00:01:15;;;;;;;4.47;2.00;;;;;;;;;;5052926;28;20021;-41
2022/05/27 00:03:40;;;;;;;2.78;2.42;;;;;;;;;;5052972;28;20052;-40
2022/05/27 00:06:06;;;;;;;3.25;2.20;;;;;;;;;;5052367;28;20021;-40
2022/05/27 00:08:31;;;;;;;6.85;2.40;;;;;;;;;;5052903;28;20182;-40
2022/05/27 00:10:57;;;;;;;5.43;2.28;;;;;;;;;;5052858;28;20028;-41
2022/05/27 00:13:23;;;;;;;7.80;2.78;;;;;;;;;;5052535;28;20128;-40
2022/05/27 00:15:48;;;;;;;4.72;2.30;;;;;;;;;;5053179;28;20103;-40
2022/05/27 00:18:13;;;;;;;4.30;2.38;;;;;;;;;;5051715;28;20379;-40
2022/05/27 00:20:39;;;;;;;2.60;2.30;;;;;;;;;;5052934;28;20458;-40
2022/05/27 00:23:04;;;;;;;2.38;2.10;;;;;;;;;;5052563;28;20487;-40
2022/05/27 00:25:30;;;;;;;5.57;2.40;;;;;;;;;;5052765;28;20013;-40
2022/05/27 00:27:57;;;;;;;7.22;2.47;;;;;;;;;;5052877;28;20037;-40
2022/05/27 00:30:22;;;;;;;5.00;2.00;;;;;;;;;;5052577;28;20108;-40
2022/05/27 00:32:47;;;;;;;2.45;2.03;;;;;;;;;;5052734;28;20175;-40
2022/05/27 00:35:13;;;;;;;2.75;2.33;;;;;;;;;;5052496;28;20489;-40
2022/05/27 00:37:38;;;;;;;5.78;2.17;;;;;;;;;;5052486;28;20029;-40
2022/05/27 00:40:04;;;;;;;9.68;2.92;;;;;;;;;;5052618;28;20435;-40
2022/05/27 00:42:29;;;;;;;4.05;3.53;;;;;;;;;;5052135;28;20047;-40
2022/05/27 00:44:55;;;;;;;7.35;2.00;;;;;;;;;;5052352;28;20021;-42
2022/05/27 00:47:22;;;;;;;3.50;2.00;;;;;;;;;;5052188;28;20037;-40
2022/05/27 00:49:58;;;;;;;3.60;2.00;;;;;;;;;;5051923;28;20021;-40
2022/05/27 00:52:26;;;;;;;1.98;1.70;;;;;;;;;;5052004;28;20025;-40
2022/05/27 00:54:52;;;;;;;6.25;3.28;;;;;;;;;;5052602;28;20032;-39
2022/05/27 00:57:22;;;;;;;4.28;2.17;;;;;;;;;;5050716;28;20029;-40
2022/05/27 01:00:07;;;;;;;3.97;2.53;;;;;;;;;;5051930;28;20025;-40
2022/05/27 01:02:33;;;;;;;2.50;2.03;;;;;;;;;;5051866;28;20051;-40
2022/05/27 01:04:59;;;;;;;2.38;2.00;;;;;;;;;;5052114;28;20108;-40
2022/05/27 01:07:24;;;;;;;3.40;2.28;;;;;;;;;;5051752;28;20124;-39
2022/05/27 01:09:50;;;;;;;2.60;1.90;;;;;;;;;;5052135;28;20021;-40
2022/05/27 01:12:27;;;;;;;4.65;2.00;;;;;;;;;;5051631;28;20044;-40
2022/05/27 01:14:53;;;;;;;4.35;2.20;;;;;;;;;;5051553;28;20129;-40
2022/05/27 01:17:35;;;;;;;3.10;2.42;;;;;;;;;;5050307;28;20676;-40
2022/05/27 01:20:21;;;;;;;5.38;1.88;;;;;;;;;;5051663;28;20032;-40
2022/05/27 01:22:49;;;;;;;2.50;2.15;;;;;;;;;;5051772;28;20041;-39
2022/05/27 01:25:18;;;;;;;2.83;2.45;;;;;;;;;;5051553;28;20021;-40
2022/05/27 01:28:02;;;;;;;3.72;2.30;;;;;;;;;;5051435;28;20043;-40
2022/05/27 01:30:27;;;;;;;3.75;2.60;;;;;;;;;;5051358;28;20189;-40
2022/05/27 01:33:11;;;;;;;3.13;1.90;;;;;;;;;;5051565;28;20075;-40
2022/05/27 01:35:40;;;;;;;4.38;3.13;;;;;;;;;;5051483;28;20025;-43
2022/05/27 01:38:08;;;;;;;3.55;1.83;;;;;;;;;;5051757;28;20021;-40
2022/05/27 01:40:41;;;;;;;3.45;2.20;;;;;;;;;;5051205;28;20116;-40
2022/05/27 01:43:06;;;;;;;;;;;;;;;;;;5051890;28;20041;-40
2022/05/27 01:45:32;;;;;;;2.60;2.10;;;;;;;;;;5051239;28;19905;-40
2022/05/27 01:48:00;;;;;;;4.18;2.38;;;;;;;;;;5051431;28;20270;-40
2022/05/27 01:50:33;;;;;;;2.15;1.92;;;;;;;;;;5051392;28;20027;-40
2022/05/27 01:53:05;;;;;;;3.10;2.53;;;;;;;;;;5051112;28;20383;-40
2022/05/27 01:55:40;;;;;;;4.85;2.95;;;;;;;;;;5051401;28;20082;-40
2022/05/27 01:58:08;;;;;;;6.22;2.45;;;;;;;;;;5051093;28;20029;-41
2022/05/27 02:00:34;;;;;;;3.70;2.67;;;;;;;;;;5051301;28;20043;-40
2022/05/27 02:03:18;;;;;;;3.58;2.10;;;;;;;;;;5051233;28;20037;-40
2022/05/27 02:05:46;;;;;;;4.40;2.70;;;;;;;;;;5051102;28;20143;-40
2022/05/27 02:08:18;;;;;;;3.85;3.15;;;;;;;;;;5051240;28;20120;-40
2022/05/27 02:10:49;;;;;;;4.15;2.70;;;;;;;;;;5050891;28;20475;-40
2022/05/27 02:13:35;;;;;;;2.03;1.80;;;;;;;;;;5050801;28;20083;-40
2022/05/27 02:16:02;;;;;;;2.88;1.75;;;;;;;;;;5051321;28;20043;-40
2022/05/27 02:18:41;;;;;;;2.38;1.83;;;;;;;;;;5050758;28;20650;-39
2022/05/27 02:21:27;;;;;;;4.15;2.38;;;;;;;;;;5051002;28;20479;-40
2022/05/27 02:24:10;;;;;;;3.70;2.47;;;;;;;;;;5050234;28;20095;-40
2022/05/27 02:26:41;;;;;;;6.40;3.33;;;;;;;;;;5050738;28;20033;-40
2022/05/27 02:29:12;;;;;;;3.67;1.90;;;;;;;;;;5053101;28;20021;-40
2022/05/27 02:31:40;;;;;;;4.15;2.53;;;;;;;;;;5054821;28;20049;-40
2022/05/27 02:36:56;;;;;;;5.18;2.13;;;;;;;;;;5054686;28;20116;-39
2022/05/27 02:39:22;;;;;;;2.33;1.73;;;;;;;;;;5054814;28;20526;-40
2022/05/27 02:41:50;;;;;;;7.22;2.15;;;;;;;;;;5054417;28;20017;-39
2022/05/27 02:44:24;;;;;;;2.70;2.08;;;;;;;;;;5054831;28;20041;-40
2022/05/27 02:47:13;;;;;;;6.10;2.38;;;;;;;;;;5053049;28;20494;-40
2022/05/27 02:49:45;;;;;;;4.82;2.22;;;;;;;;;;5054402;28;20513;-40
2022/05/27 02:52:29;;;;;;;8.48;2.53;;;;;;;;;;5054689;28;20116;-42
2022/05/27 02:55:10;;;;;;;5.03;2.65;;;;;;;;;;5054273;28;20060;-40
2022/05/27 02:57:41;;;;;;;4.90;2.17;;;;;;;;;;5054505;28;20029;-39
2022/05/27 03:00:09;;;;;;;2.10;1.63;;;;;;;;;;5054363;28;20048;-40
2022/05/27 03:02:34;;;;;;;2.53;2.00;;;;;;;;;;5054145;28;20037;-40
2022/05/27 03:05:00;;;;;;;3.05;2.05;;;;;;;;;;5054126;28;20368;-40
2022/05/27 03:07:33;;;;;;;3.88;2.00;;;;;;;;;;5054038;28;20025;-40
2022/05/27 03:10:05;;;;;;;3.35;2.33;;;;;;;;;;5053999;28;20363;-40
2022/05/27 03:12:49;;;;;;;2.58;1.67;;;;;;;;;;5053779;28;20029;-41
2022/05/27 03:15:20;;;;;;;4.65;1.90;;;;;;;;;;5054149;28;20120;-40
2022/05/27 03:18:12;;;;;;;3.45;1.83;;;;;;;;;;5053966;28;20035;-40
2022/05/27 03:20:40;;;;;;;2.90;2.35;;;;;;;;;;5044611;28;20045;-40
2022/05/27 03:23:15;;;;;;;5.82;2.50;;;;;;;;;;5053803;28;20029;-40
2022/05/27 03:25:46;;;;;;;2.40;1.70;;;;;;;;;;5054013;28;20039;-40
2022/05/27 03:28:11;;;;;;;2.38;2.17;;;;;;;;;;5053789;28;20040;-39
2022/05/27 03:30:42;;;;;;;4.22;2.15;;;;;;;;;;5053772;28;20021;-40
2022/05/27 03:33:26;;;;;;;5.60;2.45;;;;;;;;;;5053941;28;20433;-41
2022/05/27 03:35:55;;;;;;;5.88;2.90;;;;;;;;;;5053539;28;20122;-39
2022/05/27 03:38:25;;;;;;;2.78;2.55;;;;;;;;;;5053856;28;20021;-39
2022/05/27 03:40:53;;;;;;;4.38;2.00;;;;;;;;;;5052183;28;20033;-40
2022/05/27 03:43:20;;;;;;;3.85;2.08;;;;;;;;;;5053681;28;20108;-40
2022/05/27 03:45:48;;;;;;;2.90;2.03;;;;;;;;;;5053363;28;20036;-40
2022/05/27 03:48:13;;;;;;;2.22;1.75;;;;;;;;;;5053394;28;20098;-40
2022/05/27 03:50:39;;;;;;;3.95;2.00;;;;;;;;;;5053501;28;20056;-40
2022/05/27 03:53:04;;;;;;;6.60;2.38;;;;;;;;;;5053240;28;20036;-39
2022/05/27 03:55:30;;;;;;;3.63;2.28;;;;;;;;;;5053242;28;20021;-40
2022/05/27 03:57:55;;;;;;;3.25;2.03;;;;;;;;;;5053094;28;20535;-40
2022/05/27 04:00:21;;;;;;;3.30;2.15;;;;;;;;;;5053465;28;20032;-40
2022/05/27 04:02:47;;;;;;;7.13;2.30;;;;;;;;;;5052946;28;20063;-40
2022/05/27 04:05:15;;;;;;;2.78;2.05;;;;;;;;;;5053184;28;20212;-40
2022/05/27 04:07:41;;;;;;;3.20;2.15;;;;;;;;;;5053369;28;20398;-40
2022/05/27 04:10:08;;;;;;;3.70;2.20;;;;;;;;;;5053151;28;20029;-40
2022/05/27 04:12:34;;;;;;;3.55;2.33;;;;;;;;;;5052925;28;20087;-40
2022/05/27 04:14:59;;;;;;;5.00;2.03;;;;;;;;;;5053160;28;20055;-40
2022/05/27 04:17:27;;;;;;;4.55;2.45;;;;;;;;;;5052666;28;20052;-40
2022/05/27 04:19:53;;;;;;;4.80;2.28;;;;;;;;;;5051471;28;20482;-40
2022/05/27 04:22:18;;;;;;;2.83;1.80;;;;;;;;;;5052867;28;20111;-40
2022/05/27 04:24:44;;;;;;;2.58;2.15;;;;;;;;;;5052597;28;20028;-40
2022/05/27 04:27:10;;;;;;;2.03;1.77;;;;;;;;;;5052897;28;20063;-40
2022/05/27 04:29:39;;;;;;;2.15;1.95;;;;;;;;;;5052389;28;20096;-40
2022/05/27 04:32:05;;;;;;;4.18;1.98;;;;;;;;;;5052468;28;20021;-40
2022/05/27 04:34:31;;;;;;;4.47;2.03;;;;;;;;;;5052330;28;20079;-40
2022/05/27 04:36:56;;;;;;;2.53;1.90;;;;;;;;;;5052448;28;20025;-40
2022/05/27 04:39:22;;;;;;;5.28;2.03;;;;;;;;;;5052353;28;20039;-40
2022/05/27 04:41:47;;;;;;;5.07;2.20;;;;;;;;;;5052100;28;20114;-40
2022/05/27 04:44:12;;;;;;;4.15;2.10;;;;;;;;;;5052606;28;20029;-40
2022/05/27 04:46:38;;;;;;;3.60;2.80;;;;;;;;;;5052453;28;20040;-40
2022/05/27 04:49:03;;;;;;;6.10;2.40;;;;;;;;;;5052364;28;20419;-40
2022/05/27 04:51:29;;;;;;;2.88;2.17;;;;;;;;;;5050524;28;20467;-40
2022/05/27 04:53:54;;;;;;;3.72;2.30;;;;;;;;;;5052000;28;20478;-40
2022/05/27 04:56:23;;;;;;;3.40;2.13;;;;;;;;;;5052075;28;20075;-39
2022/05/27 04:58:49;;;;;;;3.08;2.53;;;;;;;;;;5052180;28;20033;-40
2022/05/27 05:01:14;;;;;;;3.90;2.08;;;;;;;;;;5052374;28;20017;-40
2022/05/27 05:03:39;;;;;;;2.97;2.03;;;;;;;;;;5051886;28;20048;-41
2022/05/27 05:06:05;;;;;;;3.72;1.88;;;;;;;;;;5051887;28;20025;-40
2022/05/27 05:08:38;;;;;;;2.40;1.92;;;;;;;;;;5051666;28;20044;-40
2022/05/27 05:11:04;;;;;;;;;;;;;;;;;;5050951;28;20075;-40
2022/05/27 05:13:33;;;;;;;5.72;2.35;;;;;;;;;;5051548;28;19921;-40
2022/05/27 05:15:59;;;;;;;1.92;1.83;;;;;;;;;;5051765;28;20039;-40
2022/05/27 05:18:25;;;;;;;2.72;1.90;;;;;;;;;;5051543;28;20021;-40
2022/05/27 05:20:50;;;;;;;4.00;1.98;;;;;;;;;;5051702;28;20120;-40
2022/05/27 05:23:16;;;;;;;1.80;1.70;;;;;;;;;;5051476;28;20108;-40
2022/05/27 05:25:41;;;;;;;4.47;2.83;;;;;;;;;;5050223;28;20029;-40
2022/05/27 05:28:07;;;;;;;4.00;2.08;;;;;;;;;;5050339;28;20036;-40
2022/05/27 05:30:32;;;;;;;3.13;1.92;;;;;;;;;;5051295;28;20025;-39
2022/05/27 05:32:58;;;;;;;3.13;1.88;;;;;;;;;;5050304;28;20017;-40
2022/05/27 05:35:23;;;;;;;8.05;2.25;;;;;;;;;;5051448;28;20066;-40
2022/05/27 05:37:49;;;;;;;3.15;2.00;;;;;;;;;;5051243;28;20024;-40
2022/05/27 05:40:16;;;;;;;1.67;1.58;;;;;;;;;;5051636;28;20080;-40
2022/05/27 05:42:42;;;;;;;3.53;2.05;;;;;;;;;;5051186;28;20741;-40
2022/05/27 05:45:09;;;;;;;2.67;2.45;;;;;;;;;;5051300;28;20028;-40
2022/05/27 05:47:34;;;;;;;5.18;2.35;;;;;;;;;;5051268;28;20024;-40
2022/05/27 05:49:59;;;;;;;2.60;1.73;;;;;;;;;;5051210;28;20028;-40
2022/05/27 05:52:25;;;;;;;2.42;1.67;;;;;;;;;;5051288;28;20021;-40
2022/05/27 05:54:51;;;;;;;3.53;2.47;;;;;;;;;;5051069;28;20391;-39
2022/05/27 05:57:17;;;;;;;2.58;2.10;;;;;;;;;;5051473;28;20025;-40
2022/05/27 05:59:42;;;;;;;4.35;2.08;;;;;;;;;;5051291;28;20386;-40
2022/05/27 06:02:08;;;;;;;1.80;1.70;;;;;;;;;;5049781;28;20504;-40
2022/05/27 06:04:34;;;;;;;4.80;2.20;;;;;;;;;;5053796;28;20029;-40
2022/05/27 06:07:00;;;;;;;2.58;2.25;;;;;;;;;;5055194;28;20087;-40
2022/05/27 06:09:25;;;;;;;3.08;2.13;;;;;;;;;;5055489;28;20029;-40
2022/05/27 06:11:52;;;;;;;3.38;1.83;;;;;;;;;;5055382;28;20531;-40
2022/05/27 06:14:17;;;;;;;3.22;2.25;;;;;;;;;;5054937;28;20135;-40
2022/05/27 06:16:42;;;;;;;3.97;2.20;;;;;;;;;;5055348;28;20116;-40
2022/05/27 06:19:08;;;;;;;2.45;1.98;;;;;;;;;;5055214;28;20025;-40
2022/05/27 06:21:33;;;;;;;2.85;2.03;;;;;;;;;;5055023;28;20111;-40
2022/05/27 06:24:01;;;;;;;6.43;2.30;;;;;;;;;;5055315;28;20115;-40
2022/05/27 06:26:26;;;;;;;5.70;2.15;;;;;;;;;;5054826;28;20041;-39
2022/05/27 06:34:26;;;;;;;4.30;2.47;;;;;;;;;;5054778;28;20044;-39
2022/05/27 06:36:54;;;;;;;3.13;2.20;;;;;;;;;;5054766;28;20214;-39
2022/05/27 06:39:20;;;;;;;2.08;1.75;;;;;;;;;;5054952;28;20025;-40
2022/05/27 06:41:46;;;;;;;2.47;1.85;;;;;;;;;;5054304;28;20029;-39
2022/05/27 06:44:11;;;;;;;2.78;2.08;;;;;;;;;;5054646;28;20107;-39
2022/05/27 06:46:37;;;;;;;3.20;2.60;;;;;;;;;;5054519;28;20032;-40
2022/05/27 06:49:04;;;;;;;4.88;1.95;;;;;;;;;;5053067;28;20566;-40
2022/05/27 06:51:29;;;;;;;2.97;1.67;;;;;;;;;;5054492;28;20094;-40
2022/05/27 06:53:55;;;;;;;7.50;2.80;;;;;;;;;;5054364;28;20463;-39
2022/05/27 06:56:24;;;;;;;4.22;1.95;;;;;;;;;;5054451;28;20032;-39
2022/05/27 06:58:49;;;;;;;5.05;2.13;;;;;;;;;;5054458;28;20033;-40
2022/05/27 07:01:14;;;;;;;2.42;2.20;;;;;;;;;;5054524;28;20525;-40
2022/05/27 07:03:40;;;;;;;2.97;2.30;;;;;;;;;;5054076;28;20036;-39
2022/05/27 07:06:06;;;;;;;2.40;2.20;;;;;;;;;;5054271;28;20107;-40
2022/05/27 07:08:31;;;;;;;8.65;2.58;;;;;;;;;;5054327;28;20025;-40
2022/05/27 07:10:57;;;;;;;3.95;2.40;;;;;;;;;;5054126;28;20620;-40
2022/05/27 07:13:23;;;;;;;2.08;1.88;;;;;;;;;;5052548;28;20125;-41
2022/05/27 07:15:48;;;;;;;3.97;2.25;;;;;;;;;;5052424;28;20029;-40
2022/05/27 07:18:14;;;;;;;4.40;2.25;;;;;;;;;;5053849;28;20027;-40
2022/05/27 07:20:46;;;;;;;6.97;2.42;;;;;;;;;;5053884;28;20021;-44
2022/05/27 07:23:11;;;;;;;3.45;2.17;;;;;;;;;;5053803;28;20029;-39
2022/05/27 07:25:37;;;;;;;5.00;2.03;;;;;;;;;;5053698;28;20013;-40
2022/05/27 07:28:07;;;;;;;4.65;1.92;;;;;;;;;;5054086;28;20108;-41
2022/05/27 07:30:33;;;;;;;4.78;2.10;;;;;;;;;;5053540;28;20021;-40
2022/05/27 07:32:58;;;;;;;5.22;2.40;;;;;;;;;;5053700;28;20083;-40
2022/05/27 07:35:24;;;;;;;3.95;2.70;;;;;;;;;;5053651;28;20024;-40
2022/05/27 07:37:50;;;;;;;2.95;2.28;;;;;;;;;;5053654;28;20111;-41
2022/05/27 07:40:16;;;;;;;2.40;2.20;;;;;;;;;;5053609;28;20537;-40
2022/05/27 07:42:42;;;;;;;12.93;2.90;;;;;;;;;;5053627;28;20059;-40
2022/05/27 07:45:09;;;;;;;11.25;2.53;;;;;;;;;;5053413;28;20032;-40
2022/05/27 07:47:35;;;;;;;4.80;2.13;;;;;;;;;;5053295;28;20029;-40
2022/05/27 07:50:00;;;;;;;3.50;2.38;;;;;;;;;;5053272;28;20024;-40
2022/05/27 07:52:26;;;;;;;2.72;2.22;;;;;;;;;;5053316;28;20077;-40
2022/05/27 07:54:54;;;;;;;2.75;2.17;;;;;;;;;;5053151;28;20033;-40
2022/05/27 07:57:25;;;;;;;2.20;1.92;;;;;;;;;;5053307;28;20460;-40
2022/05/27 07:59:54;;;;;;;3.05;2.28;;;;;;;;;;5051673;28;20029;-40
2022/05/27 08:02:20;;;;;;;4.38;1.98;;;;;;;;;;5053096;28;20028;-39
2022/05/27 08:04:45;;;;;;;6.45;2.20;;;;;;;;;;5053326;28;20082;-39
2022/05/27 08:07:11;;;;;;;5.07;2.05;;;;;;;;;;5053517;28;20025;-40
2022/05/27 08:09:36;;;;;;;2.55;2.35;;;;;;;;;;5052802;28;20487;-39
2022/05/27 08:12:02;;;;;;;6.35;1.80;;;;;;;;;;5053244;28;20027;-40
2022/05/27 08:14:28;;;;;;;3.88;2.28;;;;;;;;;;5052678;28;20045;-40
2022/05/27 08:16:53;;;;;;;3.00;1.77;;;;;;;;;;5053123;28;20444;-39
2022/05/27 08:19:18;;;;;;;4.78;1.67;;;;;;;;;;5052728;28;20028;-40
2022/05/27 08:21:44;;;;;;;2.22;2.03;;;;;;;;;;5052639;28;20071;-40
2022/05/27 08:24:10;;;;;;;2.67;2.08;;;;;;;;;;5053089;28;20032;-40
2022/05/27 08:26:37;;;;;;;3.60;2.30;;;;;;;;;;5051778;28;20367;-40
2022/05/27 08:29:03;;;;;;;4.45;2.42;;;;;;;;;;5052531;28;20067;-40
2022/05/27 08:31:29;;;;;;;7.25;2.20;;;;;;;;;;5052428;28;20017;-40
2022/05/27 08:39:23;;;;;;;3.38;2.55;;;;;;;;;;5052495;28;20515;-40
2022/05/27 08:42:07;;;;;;;2.90;2.17;;;;;;;;;;5052060;28;20053;-40
2022/05/27 08:44:37;;;;;;;3.42;1.77;;;;;;;;;;5052596;28;20033;-40
2022/05/27 08:47:12;;;;;;;4.10;2.00;;;;;;;;;;5052569;28;20025;-39
2022/05/27 08:49:40;;;;;;;10.77;2.38;;;;;;;;;;5052071;28;20387;-40
2022/05/27 08:52:23;;;;;;;2.25;2.00;;;;;;;;;;5052480;28;20020;-40
2022/05/27 08:54:48;;;;;;;;;;;;;;;;;;5052457;28;20033;-40
2022/05/27 09:00:01;;;;;;;1.90;1.73;;;;;;;;;;5051918;28;20029;-40
2022/05/27 09:02:38;;;;;;;5.93;2.03;;;;;;;;;;5051909;28;20033;-40
2022/05/27 09:05:03;;;;;;;2.83;2.05;;;;;;;;;;5052164;28;20044;-43
2022/05/27 09:07:38;;;;;;;3.40;2.22;;;;;;;;;;5052198;28;20021;-41
2022/05/27 09:10:09;;;;;;;7.55;2.15;;;;;;;;;;5052074;28;20161;-42
2022/05/27 09:12:38;;;;;;;5.45;2.00;;;;;;;;;;5051612;28;20032;-41
2022/05/27 09:15:22;;;;;;;2.10;1.75;;;;;;;;;;5052093;28;20102;-40
2022/05/27 09:18:07;;;;;;;7.40;2.60;;;;;;;;;;5051570;28;20107;-40
2022/05/27 09:20:50;;;;;;;8.00;2.67;;;;;;;;;;5051798;28;20083;-40
2022/05/27 09:23:19;;;;;;;7.18;2.15;;;;;;;;;;5051568;28;20390;-40
2022/05/27 09:25:49;;;;;;;9.80;2.15;;;;;;;;;;5051466;28;20155;-40
2022/05/27 09:28:50;;;;;;;4.38;2.72;;;;;;;;;;5051598;28;20467;-40
2022/05/27 09:31:20;;;;;;;3.17;2.40;;;;;;;;;;5032388;28;20037;-40
2022/05/27 09:33:46;;;;;;;11.48;2.80;;;;;;;;;;5050845;28;20062;-40
2022/05/27 09:36:15;;;;;;;4.22;2.40;;;;;;;;;;5051601;28;20383;-40
2022/05/27 09:38:52;;;;;;;3.75;2.65;;;;;;;;;;5051248;28;20102;-40
2022/05/27 09:41:24;;;;;;;5.93;3.05;;;;;;;;;;5051478;28;20043;-40
2022/05/27 09:43:53;;;;;;;3.50;2.37;;;;;;;;;;5051408;28;20504;-40
2022/05/27 09:46:24;;;;;;;7.28;3.00;;;;;;;;;;5051539;28;20025;-40
2022/05/27 09:48:50;;;;;;;4.82;2.28;;;;;;;;;;5051352;28;20059;-40
2022/05/27 09:51:17;;;;;;;8.77;2.42;;;;;;;;;;5051345;28;20472;-39
2022/05/27 09:53:46;;;;;;;6.05;2.33;;;;;;;;;;5051042;28;20116;-40
2022/05/27 09:56:13;;;;;;;4.43;2.50;;;;;;;;;;5051245;28;20037;-39
2022/05/27 09:58:45;;;;;;;9.80;2.60;;;;;;;;;;5051109;28;20036;-40
2022/05/27 10:01:23;;;;;;;5.03;2.05;;;;;;;;;;5051059;28;20662;-40
2022/05/27 10:04:03;;;;;;;3.88;2.45;;;;;;;;;;5051063;28;20037;-40
2022/05/27 10:06:29;;;;;;;5.15;2.55;;;;;;;;;;5049933;28;20061;-40
2022/05/27 10:09:02;;;;;;;5.03;2.30;;;;;;;;;;5050898;28;20021;-40
2022/05/27 10:11:35;;;;;;;7.82;2.55;;;;;;;;;;5051380;28;20120;-40
2022/05/27 10:14:19;;;;;;;3.90;2.42;;;;;;;;;;5050941;28;20051;-40
2022/05/27 10:17:17;;;;;;;3.83;3.42;;;;;;;;;;5051282;28;20075;-40
2022/05/27 10:19:44;;;;;;;7.97;2.20;;;;;;;;;;5049420;28;20041;-40
2022/05/27 10:22:24;;;;;;;7.85;3.00;;;;;;;;;;5051147;28;20021;-42
2022/05/27 10:25:11;;;;;;;9.50;2.85;;;;;;;;;;5050945;28;20047;-39
2022/05/27 10:27:38;;;;;;;4.80;3.05;;;;;;;;;;5050636;28;20067;-40
2022/05/27 10:30:18;;;;;;;8.52;2.85;;;;;;;;;;5051147;28;20055;-40
2022/05/27 10:32:44;;;;;;;3.47;2.28;;;;;;;;;;5049594;28;20475;-40
2022/05/27 10:35:15;;;;;;;5.10;2.90;;;;;;;;;;5051167;28;20021;-40
2022/05/27 10:38:00;;;;;;;8.32;2.55;;;;;;;;;;5050675;28;20033;-40
2022/05/27 10:40:31;;;;;;;3.97;2.20;;;;;;;;;;5051140;28;20101;-40
2022/05/27 10:43:03;;;;;;;4.18;2.75;;;;;;;;;;5050661;28;20513;-40
2022/05/27 10:45:33;;;;;;;9.02;3.60;;;;;;;;;;5050862;28;20108;-40
2022/05/27 10:48:04;;;;;;;8.07;2.83;;;;;;;;;;5050939;28;20040;-40
2022/05/27 10:50:32;;;;;;;5.20;2.40;;;;;;;;;;5053148;28;20072;-40
2022/05/27 10:53:03;;;;;;;4.47;2.47;;;;;;;;;;5054356;28;20066;-40
2022/05/27 10:55:32;;;;;;;7.72;2.38;;;;;;;;;;5054449;28;20028;-39
2022/05/27 11:03:34;;;;;;;5.97;2.70;;;;;;;;;;5054104;28;20114;-40
2022/05/27 11:06:05;;;;;;;8.32;2.90;;;;;;;;;;5052911;28;20526;-40
2022/05/27 11:08:33;;;;;;;6.18;3.05;;;;;;;;;;5053014;28;20388;-40
2022/05/27 11:11:07;;;;;;;8.88;3.08;;;;;;;;;;5054157;28;20028;-40
2022/05/27 11:16:38;;;;;;;11.27;3.50;;;;;;;;;;5054080;28;20033;-40
2022/05/27 11:19:16;;;;;;;7.22;3.20;;;;;;;;;;5053880;28;20481;-40
2022/05/27 11:21:41;;;;;;;6.07;2.40;;;;;;;;;;5053792;28;20035;-40
2022/05/27 11:24:09;;;;;;;6.30;2.70;;;;;;;;;;5053974;28;20025;-40
2022/05/27 11:26:56;;;;;;;7.40;3.45;;;;;;;;;;5052358;28;20033;-40
2022/05/27 11:29:24;;;;;;;6.85;2.80;;;;;;;;;;5053751;28;20495;-40
2022/05/27 11:31:55;;;;;;;6.68;3.05;;;;;;;;;;5053695;28;20128;-40
2022/05/27 11:34:25;;;;;;;3.35;2.33;;;;;;;;;;5053700;28;20043;-39
2022/05/27 11:36:53;;;;;;;10.45;3.05;;;;;;;;;;5053582;28;20025;-40
2022/05/27 11:39:21;;;;;;;7.22;2.95;;;;;;;;;;5053540;28;20021;-41
2022/05/27 11:41:53;;;;;;;6.40;2.80;;;;;;;;;;5053596;28;20116;-40
2022/05/27 11:44:28;;;;;;;3.90;2.55;;;;;;;;;;5053608;28;20475;-41
2022/05/27 11:47:19;;;;;;;6.45;3.00;;;;;;;;;;5053257;28;20032;-40
2022/05/27 11:49:53;;;;;;;7.18;3.75;;;;;;;;;;5053228;28;20496;-39
2022/05/27 11:52:41;;;;;;;4.90;2.97;;;;;;;;;;5053461;28;20495;-40
2022/05/27 11:55:25;;;;;;;7.05;3.88;;;;;;;;;;5053462;28;20032;-40
2022/05/27 11:58:23;;;;;;;4.82;2.88;;;;;;;;;;5053034;28;20029;-40
2022/05/27 12:01:12;;;;;;;13.45;3.05;;;;;;;;;;5050589;28;20116;-40
2022/05/27 12:03:41;;;;;;;13.68;3.22;;;;;;;;;;5052371;28;20102;-41
2022/05/27 12:06:09;;;;;;;3.72;2.85;;;;;;;;;;5052931;28;20079;-40
2022/05/27 12:08:38;;;;;;;9.23;2.83;;;;;;;;;;5052920;28;20441;-40
2022/05/27 12:11:07;;;;;;;5.13;3.63;;;;;;;;;;5053029;28;20091;-40
2022/05/27 12:13:42;;;;;;;6.10;3.13;;;;;;;;;;5052727;28;20053;-40
2022/05/27 12:16:08;;;;;;;15.65;3.60;;;;;;;;;;5052926;28;20024;-39
2022/05/27 12:18:34;;;;;;;13.43;3.50;;;;;;;;;;5052759;28;20029;-40
2022/05/27 12:21:03;;;;;;;6.70;3.40;;;;;;;;;;5052874;28;20033;-41
2022/05/27 12:23:31;;;;;;;10.52;3.10;;;;;;;;;;5051202;28;20431;-40
2022/05/27 12:26:00;;;;;;;2.67;2.17;;;;;;;;;;5052950;28;20041;-40
2022/05/27 12:28:30;;;;;;;4.95;2.60;;;;;;;;;;5052836;28;20051;-40
2022/05/27 12:30:57;;;;;;;5.13;2.97;;;;;;;;;;5052446;28;20036;-40
2022/05/27 12:33:25;;;;;;;5.97;3.95;;;;;;;;;;5052945;28;20698;-40
2022/05/27 12:35:54;;;;;;;4.78;3.05;;;;;;;;;;5052451;28;20021;-40
2022/05/27 12:38:27;;;;;;;11.75;3.15;;;;;;;;;;5051151;28;20025;-39
2022/05/27 12:40:53;;;;;;;8.88;3.00;;;;;;;;;;5052605;28;20452;-44
2022/05/27 12:43:27;;;;;;;6.93;3.50;;;;;;;;;;5052404;28;20113;-40
2022/05/27 12:45:52;;;;;;;9.20;3.75;;;;;;;;;;5052430;28;20625;-40
2022/05/27 12:48:38;;;;;;;3.97;2.70;;;;;;;;;;5052273;28;20111;-40
2022/05/27 12:51:06;;;;;;;6.28;3.22;;;;;;;;;;5052157;28;20029;-40
2022/05/27 12:53:39;;;;;;;8.25;4.15;;;;;;;;;;5051037;28;20109;-40
2022/05/27 13:02:27;;;;;;;11.50;3.45;;;;;;;;;;5050595;28;20120;-40
2022/05/27 13:04:54;;;;;;;8.10;3.05;;;;;;;;;;5051240;28;20037;-40
2022/05/27 13:07:43;;;;;;;5.28;3.78;;;;;;;;;;5051840;28;20048;-40
2022/05/27 13:10:17;;;;;;;8.75;3.35;;;;;;;;;;5050613;28;20025;-40
2022/05/27 13:12:49;;;;;;;3.50;3.05;;;;;;;;;;5051551;28;20068;-40
2022/05/27 13:15:22;;;;;;;7.18;3.97;;;;;;;;;;5051805;28;20487;-41
2022/05/27 13:17:52;;;;;;;5.75;3.55;;;;;;;;;;5051636;28;20136;-40
2022/05/27 13:20:19;;;;;;;7.32;4.03;;;;;;;;;;5051474;28;20039;-40
2022/05/27 13:22:57;;;;;;;10.20;3.38;;;;;;;;;;5051553;28;20478;-40
2022/05/27 13:25:29;;;;;;;4.97;3.40;;;;;;;;;;5051570;28;20118;-41
2022/05/27 13:27:55;;;;;;;5.65;3.80;;;;;;;;;;5051441;28;20427;-40
2022/05/27 13:30:41;;;;;;;8.48;3.08;;;;;;;;;;5051843;28;20025;-40
2022/05/27 13:33:08;;;;;;;5.40;3.25;;;;;;;;;;5051416;28;20041;-40
2022/05/27 13:35:39;;;;;;;7.50;3.38;;;;;;;;;;5051315;28;20020;-41
2022/05/27 13:38:08;;;;;;;7.97;3.42;;;;;;;;;;5051723;28;20040;-40
2022/05/27 13:40:34;;;;;;;10.73;3.80;;;;;;;;;;5051345;28;20021;-41
2022/05/27 13:43:08;;;;;;;10.32;2.92;;;;;;;;;;5051342;28;20041;-41
2022/05/27 13:45:40;;;;;;;8.43;3.13;;;;;;;;;;5051303;28;20483;-40
2022/05/27 13:48:09;;;;;;;6.32;2.97;;;;;;;;;;5051213;28;20116;-40
2022/05/27 13:50:36;;;;;;;8.43;4.30;;;;;;;;;;5051478;28;20052;-40
2022/05/27 13:53:16;;;;;;;3.30;2.50;;;;;;;;;;5049954;28;20033;-40
2022/05/27 13:55:42;;;;;;;6.15;3.95;;;;;;;;;;5051137;28;20029;-40
2022/05/27 13:58:08;;;;;;;6.60;3.10;;;;;;;;;;5051148;28;20027;-40
2022/05/27 14:00:38;;;;;;;6.75;3.50;;;;;;;;;;5051189;28;20033;-40
2022/05/27 14:03:05;;;;;;;7.40;3.40;;;;;;;;;;5050925;28;20060;-39
2022/05/27 14:05:31;;;;;;;4.30;3.42;;;;;;;;;;5051148;28;20531;-40
2022/05/27 14:07:58;;;;;;;8.38;2.72;;;;;;;;;;5049706;28;20104;-40
2022/05/27 14:10:26;;;;;;;4.00;3.22;;;;;;;;;;5051015;28;20041;-40
2022/05/27 14:12:53;;;;;;;7.43;3.20;;;;;;;;;;5049613;28;20397;-40
2022/05/27 14:15:19;;;;;;;12.70;3.55;;;;;;;;;;5051038;28;20036;-41
2022/05/27 14:17:46;;;;;;;10.32;3.40;;;;;;;;;;5051171;28;20033;-40
2022/05/27 14:20:22;;;;;;;6.47;3.40;;;;;;;;;;5050959;28;20033;-40
2022/05/27 14:22:50;;;;;;;10.00;3.35;;;;;;;;;;5050859;28;20037;-41
2022/05/27 14:25:19;;;;;;;5.88;2.88;;;;;;;;;;5053150;28;20075;-41
2022/05/27 14:27:47;;;;;;;6.45;3.75;;;;;;;;;;5054929;28;20025;-41
2022/05/27 14:30:15;;;;;;;5.80;3.13;;;;;;;;;;5055233;28;20048;-40
2022/05/27 14:32:41;;;;;;;4.05;3.25;;;;;;;;;;5055015;28;20059;-40
2022/05/27 14:35:08;;;;;;;7.85;3.30;;;;;;;;;;5055117;28;20028;-41
2022/05/27 14:37:39;;;;;;;4.78;3.17;;;;;;;;;;5054934;28;20044;-40
2022/05/27 14:40:10;;;;;;;8.93;3.70;;;;;;;;;;5054769;28;20460;-40
2022/05/27 14:42:37;;;;;;;8.55;3.10;;;;;;;;;;5054790;28;20082;-40
2022/05/27 14:45:02;;;;;;;5.72;2.80;;;;;;;;;;5054890;28;20087;-40
2022/05/27 14:47:31;;;;;;;5.13;3.28;;;;;;;;;;5054905;28;20471;-41
2022/05/27 14:49:58;;;;;;;6.30;2.97;;;;;;;;;;5054677;28;20056;-40
2022/05/27 14:52:40;;;;;;;8.25;2.90;;;;;;;;;;5054753;28;20033;-40
2022/05/27 14:55:15;;;;;;;6.57;3.20;;;;;;;;;;5054703;28;20029;-40
2022/05/27 14:57:50;;;;;;;8.60;3.08;;;;;;;;;;5054309;28;20037;-41
2022/05/27 15:00:40;;;;;;;6.05;3.22;;;;;;;;;;5054475;28;20104;-40
2022/05/27 15:03:21;;;;;;;10.20;3.47;;;;;;;;;;5054403;28;20380;-41
2022/05/27 15:05:47;;;;;;;17.23;3.92;;;;;;;;;;5054195;28;20106;-41
2022/05/27 15:08:15;;;;;;;4.93;3.28;;;;;;;;;;5052911;28;20053;-40
2022/05/27 15:10:41;;;;;;;4.97;2.70;;;;;;;;;;5054125;28;20036;-40
2022/05/27 15:13:29;;;;;;;5.38;3.28;;;;;;;;;;5053894;28;20804;-40
2022/05/27 15:16:15;;;;;;;6.47;2.85;;;;;;;;;;5054085;28;20589;-41
2022/05/27 15:18:49;;;;;;;6.05;3.28;;;;;;;;;;5053618;28;20116;-40
2022/05/27 15:21:18;;;;;;;5.80;3.00;;;;;;;;;;5053852;28;20033;-41
2022/05/27 15:24:09;;;;;;;4.82;3.08;;;;;;;;;;5053815;28;20033;-40
2022/05/27 15:35:00;;;;;;;4.57;3.55;;;;;;;;;;5053416;28;20060;-41
2022/05/27 15:37:27;;;;;;;5.75;3.80;;;;;;;;;;5053913;28;20075;-40
2022/05/27 15:39:56;;;;;;;20.42;5.18;;;;;;;;;;5053599;28;20029;-40